Time;durP1;ratioP1;P1;durP2;ratioP2;P2;SDS_P1;SDS_P2;PMS_P1;PMS_P2;Temp;Humidity;BMP_temperature;BMP_pressure;BME280_temperature;BME280_humidity;BME280_pressure;Samples;Min_cycle;Max_cycle;Signal;HPM_P1;HPM_P2
2024/01/25 00:00:46;;;;;;;8.30;2.63;;;;;;;10.28;69.27;96096.63;4932635;29;20205;-88
2024/01/25 00:03:21;;;;;;;9.23;2.30;;;;;;;10.24;69.63;96115.91;4950532;29;20217;-88
2024/01/25 00:06:00;;;;;;;6.13;2.27;;;;;;;10.23;70.13;96121.22;4950718;28;20240;-88
2024/01/25 00:08:27;;;;;;;7.97;2.10;;;;;;;10.32;70.14;96130.56;4950644;28;20196;-86
2024/01/25 00:10:56;;;;;;;7.67;1.80;;;;;;;10.30;70.41;96135.06;4946815;29;20269;-88
2024/01/25 00:13:42;;;;;;;5.43;1.70;;;;;;;10.24;70.60;96153.72;4930735;29;20209;-87
2024/01/25 00:16:14;;;;;;;8.23;2.20;;;;;;;10.29;70.96;96167.72;4931688;29;20235;-87
2024/01/25 00:18:50;;;;;;;7.97;2.07;;;;;;;10.23;71.50;96185.56;4948008;29;20228;-87
2024/01/25 00:21:25;;;;;;;5.30;1.77;;;;;;;10.13;72.72;96221.72;4950672;29;20248;-87
2024/01/25 00:24:09;;;;;;;3.27;1.73;;;;;;;10.02;73.95;96256.25;4943514;29;20745;-87
2024/01/25 00:26:40;;;;;;;4.83;2.10;;;;;;;9.96;74.32;96264.59;4923502;29;20225;-88
2024/01/25 00:29:30;;;;;;;5.23;1.90;;;;;;;10.00;74.68;96285.69;4931669;29;20213;-87
2024/01/25 00:32:14;;;;;;;8.77;2.03;;;;;;;10.00;75.43;96303.69;4926242;29;20300;-88
2024/01/25 00:34:41;;;;;;;6.03;2.23;;;;;;;10.01;75.17;96300.13;4946448;28;20639;-87
2024/01/25 00:37:13;;;;;;;7.07;2.27;;;;;;;10.02;75.31;96304.31;4950353;29;20211;-87
2024/01/25 00:39:53;;;;;;;5.27;1.70;;;;;;;9.96;75.21;96294.66;4934111;28;20604;-88
2024/01/25 00:42:29;;;;;;;6.60;1.97;;;;;;;9.96;75.10;96294.66;4904489;29;20259;-87
2024/01/25 00:44:59;;;;;;;7.20;1.97;;;;;;;9.99;75.03;96290.03;4930439;29;20231;-87
2024/01/25 00:47:33;;;;;;;4.47;2.00;;;;;;;10.02;74.92;96276.81;4932050;29;20799;-87
2024/01/25 00:50:05;;;;;;;5.20;1.80;;;;;;;10.09;74.45;96260.78;4940337;29;20258;-87
2024/01/25 00:52:47;;;;;;;8.60;2.13;;;;;;;10.05;73.97;96245.66;4950364;29;20292;-87
2024/01/25 00:55:19;;;;;;;5.13;1.80;;;;;;;10.00;74.04;96235.03;4948312;28;20227;-87
2024/01/25 00:57:46;;;;;;;5.80;2.13;;;;;;;9.89;73.68;96229.38;4927427;29;20578;-88
2024/01/25 01:00:14;;;;;;;6.87;2.20;;;;;;;9.92;73.71;96229.88;4930081;29;20233;-88
2024/01/25 01:02:44;;;;;;;5.90;2.20;;;;;;;9.92;73.96;96236.78;4930974;29;20630;-88
2024/01/25 01:05:12;;;;;;;8.37;2.10;;;;;;;10.01;73.38;96218.63;4932161;29;20228;-88
2024/01/25 01:07:40;;;;;;;8.10;2.87;;;;;;;9.96;73.22;96205.44;4950201;29;20212;-88
2024/01/25 01:10:08;;;;;;;7.43;1.97;;;;;;;10.05;72.91;96219.13;4949841;29;20200;-87
2024/01/25 01:12:36;;;;;;;6.00;2.00;;;;;;;9.99;72.76;96201.75;4932706;29;20284;-87
2024/01/25 01:15:02;;;;;;;6.07;1.87;;;;;;;10.00;72.57;96208.50;4930774;29;20225;-87
2024/01/25 01:17:28;;;;;;;4.70;2.03;;;;;;;10.01;72.58;96222.97;4931027;29;20304;-87
2024/01/25 01:19:56;;;;;;;8.23;2.57;;;;;;;10.13;72.27;96223.47;4928054;29;20236;-88
2024/01/25 01:22:23;;;;;;;6.43;2.40;;;;;;;10.10;71.86;96211.72;4940936;29;20220;-87
2024/01/25 01:24:49;;;;;;;5.47;2.13;;;;;;;10.07;72.09;96222.34;4937165;29;20228;-87
2024/01/25 01:27:17;;;;;;;7.47;2.10;;;;;;;10.12;72.14;96212.38;4934650;29;20205;-88
2024/01/25 01:29:46;;;;;;;7.77;1.93;;;;;;;10.12;71.71;96212.38;4935069;29;20202;-88
2024/01/25 01:32:13;;;;;;;6.40;2.23;;;;;;;10.15;71.79;96209.50;4933918;29;20213;-86
2024/01/25 01:34:39;;;;;;;6.27;2.10;;;;;;;10.19;71.72;96205.69;4927033;29;20613;-87
2024/01/25 01:37:07;;;;;;;7.23;2.20;;;;;;;10.21;71.98;96213.22;4932974;29;20198;-88
2024/01/25 01:39:35;;;;;;;8.93;2.73;;;;;;;10.12;72.12;96209.00;4947078;29;20231;-88
2024/01/25 01:42:02;;;;;;;9.27;1.97;;;;;;;10.15;71.85;96206.13;4953446;29;20216;-87
2024/01/25 01:44:29;;;;;;;7.67;2.30;;;;;;;10.11;72.26;96205.63;4953449;28;20216;-88
2024/01/25 01:46:56;;;;;;;5.37;2.20;;;;;;;10.14;72.17;96204.50;4953468;29;20207;-88
2024/01/25 01:49:22;;;;;;;8.10;2.60;;;;;;;10.14;72.24;96217.38;4953305;29;20196;-86
2024/01/25 01:51:54;;;;;;;7.87;2.37;;;;;;;10.14;72.23;96213.03;4953266;29;20636;-88
2024/01/25 01:54:22;;;;;;;7.70;2.13;;;;;;;10.22;72.05;96214.81;4949875;28;20713;-87
2024/01/25 01:56:48;;;;;;;8.83;2.20;;;;;;;10.30;72.07;96212.28;4952237;29;20209;-87
2024/01/25 01:59:16;;;;;;;8.80;1.90;;;;;;;10.26;71.90;96198.13;4953306;29;20231;-87
2024/01/25 02:01:44;;;;;;;6.70;2.37;;;;;;;10.23;72.03;96203.56;4952930;29;20211;-88
2024/01/25 02:04:10;;;;;;;8.50;2.47;;;;;;;10.25;71.81;96197.31;4953344;29;20211;-88
2024/01/25 02:06:37;;;;;;;7.53;2.20;;;;;;;10.25;71.97;96197.31;4953105;28;20229;-87
2024/01/25 02:09:04;;;;;;;6.43;2.13;;;;;;;10.25;71.71;96191.34;4953374;29;20197;-87
2024/01/25 02:11:32;;;;;;;5.40;2.30;;;;;;;10.23;72.25;96201.00;4942837;29;20236;-86
2024/01/25 02:13:59;;;;;;;6.17;2.00;;;;;;;10.16;72.22;96208.53;4952956;29;20745;-87
2024/01/25 02:16:25;;;;;;;9.57;2.40;;;;;;;10.22;72.42;96213.06;4945824;28;20225;-88
2024/01/25 02:18:54;;;;;;;7.93;2.10;;;;;;;10.22;72.63;96207.91;4933428;29;20200;-87
2024/01/25 02:21:20;;;;;;;7.50;2.20;;;;;;;10.21;72.65;96215.78;4933361;29;20205;-87
2024/01/25 02:23:48;;;;;;;9.10;2.10;;;;;;;10.17;72.94;96232.50;4933011;29;20216;-88
2024/01/25 02:26:14;;;;;;;5.43;2.00;;;;;;;10.08;73.38;96239.38;4937738;29;20232;-88
2024/01/25 02:28:42;;;;;;;4.90;2.17;;;;;;;10.12;73.30;96257.91;4951563;29;20641;-88
2024/01/25 02:31:10;;;;;;;7.60;2.47;;;;;;;10.16;73.26;96251.47;4933194;29;20206;-88
2024/01/25 02:33:37;;;;;;;7.30;2.50;;;;;;;10.18;73.27;96241.84;4932864;29;20240;-87
2024/01/25 02:36:03;;;;;;;7.47;2.27;;;;;;;10.22;73.05;96228.50;4933366;29;20230;-88
2024/01/25 02:38:32;;;;;;;9.40;2.77;;;;;;;10.17;73.32;96232.50;4933547;29;20208;-88
2024/01/25 02:41:02;;;;;;;6.93;2.13;;;;;;;10.18;73.52;96239.25;4933304;29;20221;-88
2024/01/25 02:43:29;;;;;;;9.57;2.63;;;;;;;10.17;73.49;96232.50;4946699;29;20304;-88
2024/01/25 02:45:55;;;;;;;8.57;1.97;;;;;;;10.07;74.00;96240.34;4952069;28;20236;-87
2024/01/25 02:48:21;;;;;;;8.10;2.10;;;;;;;10.12;74.05;96256.13;4937480;29;20205;-88
2024/01/25 02:50:48;;;;;;;5.30;1.90;;;;;;;10.14;74.07;96251.63;4933250;29;20564;-87
2024/01/25 02:53:18;;;;;;;10.13;2.57;;;;;;;10.11;74.18;96257.09;4933217;29;20205;-87
2024/01/25 02:55:44;;;;;;;6.03;1.77;;;;;;;10.00;74.64;96273.63;4932806;29;20214;-87
2024/01/25 02:58:12;;;;;;;5.53;2.00;;;;;;;10.08;74.56;96272.84;4934774;29;20204;-88
2024/01/25 03:00:39;;;;;;;6.50;2.00;;;;;;;10.13;74.60;96278.31;4951431;29;20237;-87
2024/01/25 03:03:05;;;;;;;9.87;2.33;;;;;;;10.16;74.61;96275.44;4952127;29;20208;-88
2024/01/25 03:05:39;;;;;;;5.67;1.97;;;;;;;10.06;74.66;96274.75;4952038;28;20220;-88
2024/01/25 03:08:06;;;;;;;6.00;1.93;;;;;;;10.05;75.09;96275.72;4951997;29;20209;-87
2024/01/25 03:10:33;;;;;;;6.57;1.80;;;;;;;10.13;74.48;96280.91;4951116;29;20225;-88
2024/01/25 03:13:00;;;;;;;9.57;2.40;;;;;;;10.09;74.79;96281.34;4932410;29;20233;-87
2024/01/25 03:15:28;;;;;;;6.43;2.00;;;;;;;10.11;74.83;96275.09;4939147;29;20233;-88
2024/01/25 03:17:56;;;;;;;8.13;2.20;;;;;;;10.14;74.79;96276.56;4951832;29;20687;-87
2024/01/25 03:20:22;;;;;;;8.03;2.30;;;;;;;10.15;74.88;96284.13;4951951;29;20719;-88
2024/01/25 03:22:52;;;;;;;6.27;2.20;;;;;;;10.11;74.92;96287.16;4951459;29;20235;-87
2024/01/25 03:25:18;;;;;;;7.57;1.90;;;;;;;10.09;75.56;96291.66;4946797;28;20232;-87
2024/01/25 03:27:45;;;;;;;5.53;2.07;;;;;;;10.10;75.48;96283.78;4932294;29;20217;-88
2024/01/25 03:30:14;;;;;;;7.27;1.97;;;;;;;10.08;75.76;96277.16;4932050;29;20214;-88
2024/01/25 03:32:47;;;;;;;7.00;2.40;;;;;;;9.94;76.85;96283.72;4951398;29;20213;-87
2024/01/25 03:35:13;;;;;;;4.47;1.80;;;;;;;9.98;77.07;96297.91;4951311;28;20220;-87
2024/01/25 03:37:40;;;;;;;5.77;1.93;;;;;;;9.98;77.00;96310.75;4950815;29;20231;-88
2024/01/25 03:40:09;;;;;;;5.53;1.80;;;;;;;9.99;77.19;96315.75;4932374;29;20339;-88
2024/01/25 03:42:35;;;;;;;8.03;1.90;;;;;;;10.09;77.08;96315.63;4931706;29;20217;-88
2024/01/25 03:45:02;;;;;;;6.27;2.17;;;;;;;10.02;77.22;96307.69;4931414;29;20240;-88
2024/01/25 03:47:28;;;;;;;3.50;1.80;;;;;;;10.03;77.27;96319.59;4941108;29;20259;-87
2024/01/25 03:49:56;;;;;;;5.50;1.90;;;;;;;9.96;77.68;96331.50;4951414;29;20217;-87
2024/01/25 03:52:25;;;;;;;7.50;1.87;;;;;;;9.98;77.54;96337.28;4950949;29;20772;-88
2024/01/25 03:54:51;;;;;;;5.97;2.00;;;;;;;9.93;77.22;96333.56;4951058;28;20743;-88
2024/01/25 03:57:20;;;;;;;4.07;1.77;;;;;;;9.91;77.24;96338.06;4933105;29;20213;-88
2024/01/25 03:59:46;;;;;;;5.23;1.60;;;;;;;9.93;77.14;96326.66;4932188;29;20225;-87
2024/01/25 04:02:12;;;;;;;5.37;1.67;;;;;;;10.02;77.13;96337.75;4930738;29;20209;-88
2024/01/25 04:04:42;;;;;;;5.77;1.90;;;;;;;9.99;77.04;96330.38;4950203;28;20236;-88
2024/01/25 04:07:10;;;;;;;7.23;1.97;;;;;;;10.02;76.71;96336.00;4950811;29;20209;-88
2024/01/25 04:09:37;;;;;;;6.67;1.90;;;;;;;9.99;76.46;96335.53;4938458;29;20206;-87
2024/01/25 04:12:04;;;;;;;5.13;2.00;;;;;;;10.00;76.75;96325.09;4918494;29;20226;-86
2024/01/25 04:14:30;;;;;;;6.40;2.20;;;;;;;10.04;76.75;96328.13;4912569;29;20206;-87
2024/01/25 04:16:59;;;;;;;4.83;1.63;;;;;;;10.03;76.53;96316.22;4912755;29;20214;-87
2024/01/25 04:19:25;;;;;;;10.23;2.20;;;;;;;10.02;77.07;96350.63;4928769;29;20734;-87
2024/01/25 04:21:51;;;;;;;7.60;1.80;;;;;;;9.87;77.51;96363.25;4943841;29;20264;-88
2024/01/25 04:24:19;;;;;;;4.97;2.03;;;;;;;9.96;77.46;96361.56;4930517;29;20204;-87
2024/01/25 04:26:46;;;;;;;6.47;1.97;;;;;;;9.88;77.89;96377.75;4931355;29;20225;-88
2024/01/25 04:29:13;;;;;;;6.30;1.60;;;;;;;9.88;77.96;96387.22;4931649;29;20216;-88
2024/01/25 04:31:43;;;;;;;4.50;2.03;;;;;;;9.94;78.25;96394.34;4931751;29;20228;-87
2024/01/25 04:34:10;;;;;;;5.20;1.70;;;;;;;9.95;78.07;96390.81;4931530;29;20210;-87
2024/01/25 04:36:37;;;;;;;6.03;1.60;;;;;;;9.95;78.31;96408.81;4946147;29;20316;-87
2024/01/25 04:39:03;;;;;;;6.37;1.63;;;;;;;9.91;78.48;96410.06;4939255;29;20197;-87
2024/01/25 04:41:31;;;;;;;4.37;1.60;;;;;;;9.90;78.35;96409.25;4931143;29;20233;-86
2024/01/25 04:44:00;;;;;;;6.63;2.07;;;;;;;9.86;78.98;96425.94;4930068;29;20218;-87
2024/01/25 04:46:27;;;;;;;8.20;2.40;;;;;;;9.82;79.53;96427.22;4931123;29;20229;-88
2024/01/25 04:48:53;;;;;;;6.87;1.70;;;;;;;9.78;79.45;96443.13;4931012;29;20194;-87
2024/01/25 04:51:21;;;;;;;5.23;1.77;;;;;;;9.80;79.81;96441.19;4932052;29;20896;-87
2024/01/25 04:53:47;;;;;;;6.37;2.23;;;;;;;9.85;79.19;96426.91;4938875;29;20197;-88
2024/01/25 04:56:18;;;;;;;8.60;2.30;;;;;;;9.71;79.84;96437.75;4928057;29;20232;-87
2024/01/25 04:58:49;;;;;;;6.90;1.97;;;;;;;9.70;79.91;96449.81;4932004;29;20225;-87
2024/01/25 05:01:16;;;;;;;6.27;2.10;;;;;;;9.79;79.67;96453.25;4930696;29;20232;-88
2024/01/25 05:03:42;;;;;;;5.47;2.20;;;;;;;9.82;79.65;96452.13;4931219;29;20585;-88
2024/01/25 05:06:10;;;;;;;9.10;2.40;;;;;;;9.74;80.50;96468.31;4931172;29;20226;-88
2024/01/25 05:08:37;;;;;;;5.47;1.80;;;;;;;9.74;80.65;96480.38;4936681;29;20668;-88
2024/01/25 05:11:03;;;;;;;6.47;1.93;;;;;;;9.72;80.71;96479.69;4944529;29;20232;-89
2024/01/25 05:13:30;;;;;;;4.93;1.90;;;;;;;9.78;80.64;96481.69;4930817;29;20260;-88
2024/01/25 05:15:58;;;;;;;5.17;1.40;;;;;;;9.81;80.49;96478.81;4930913;29;20236;-88
2024/01/25 05:18:24;;;;;;;5.13;1.83;;;;;;;9.81;80.13;96471.91;4929987;29;20210;-87
2024/01/25 05:20:50;;;;;;;3.67;1.43;;;;;;;9.85;82.49;96527.22;4934043;29;20226;-85
2024/01/25 05:23:17;;;;;;;4.13;1.47;;;;;;;9.82;79.86;96488.13;4932929;29;20208;-87
2024/01/25 05:25:43;;;;;;;3.07;1.37;;;;;;;9.74;80.24;96486.31;4948811;28;20225;-87
2024/01/25 05:28:10;;;;;;;5.27;1.63;;;;;;;9.75;80.29;96490.50;4949847;29;20679;-88
2024/01/25 05:30:37;;;;;;;3.83;1.60;;;;;;;9.67;80.48;96493.00;4950321;29;20712;-87
2024/01/25 05:33:05;;;;;;;7.77;1.93;;;;;;;9.63;81.00;96518.19;4950056;29;20309;-88
2024/01/25 05:35:33;;;;;;;4.13;1.33;;;;;;;9.68;81.17;96515.19;4950357;28;20221;-87
2024/01/25 05:37:59;;;;;;;4.60;1.90;;;;;;;9.76;80.67;96509.31;4951498;29;20239;-86
2024/01/25 05:40:26;;;;;;;3.40;1.53;;;;;;;9.82;80.64;96501.00;4946216;29;20707;-87
2024/01/25 05:42:52;;;;;;;6.23;2.00;;;;;;;9.84;80.47;96505.03;4949424;29;20295;-87
2024/01/25 05:45:20;;;;;;;5.87;1.90;;;;;;;9.87;80.09;96499.59;4949747;28;20229;-86
2024/01/25 05:47:48;;;;;;;6.03;1.80;;;;;;;9.85;80.04;96495.53;4950155;29;20208;-87
2024/01/25 05:50:17;;;;;;;6.53;2.10;;;;;;;9.61;80.22;96488.47;4935218;29;20834;-87
2024/01/25 05:52:43;;;;;;;5.10;1.80;;;;;;;9.57;80.50;96502.56;4930324;29;20217;-87
2024/01/25 05:55:10;;;;;;;8.13;2.30;;;;;;;9.61;80.68;96532.19;4929113;29;20221;-86
2024/01/25 05:57:38;;;;;;;5.87;2.00;;;;;;;9.65;80.88;96530.91;4911479;29;20206;-87
2024/01/25 06:00:11;;;;;;;7.20;2.10;;;;;;;9.63;80.97;96535.38;4911688;29;20213;-87
2024/01/25 06:02:37;;;;;;;7.10;2.03;;;;;;;9.63;81.00;96549.06;4928368;29;20225;-87
2024/01/25 06:05:04;;;;;;;5.17;1.50;;;;;;;9.60;81.38;96546.00;4942607;28;20228;-87
2024/01/25 06:07:32;;;;;;;6.70;2.20;;;;;;;9.62;81.06;96550.00;4950967;28;20207;-87
2024/01/25 06:10:03;;;;;;;6.43;1.80;;;;;;;9.62;81.04;96550.00;4952665;29;20204;-87
2024/01/25 06:12:32;;;;;;;5.20;1.83;;;;;;;9.60;81.36;96562.22;4936488;29;20197;-87
2024/01/25 06:15:00;;;;;;;7.50;2.70;;;;;;;9.61;80.71;96555.31;4933924;29;20233;-89
2024/01/25 06:17:27;;;;;;;5.43;1.70;;;;;;;9.59;80.80;96547.75;4933820;29;20268;-87
2024/01/25 06:20:02;;;;;;;9.63;2.40;;;;;;;9.58;80.81;96550.47;4944344;29;20220;-88
2024/01/25 06:22:28;;;;;;;5.40;2.10;;;;;;;9.55;80.58;96545.63;4941600;29;20232;-88
2024/01/25 06:24:56;;;;;;;7.17;2.40;;;;;;;9.53;80.83;96550.09;4922485;29;20747;-88
2024/01/25 06:27:23;;;;;;;6.87;2.33;;;;;;;9.64;80.42;96558.38;4933941;29;20201;-89
2024/01/25 06:29:49;;;;;;;5.47;1.90;;;;;;;9.64;79.78;96550.66;4933900;29;20205;-89
2024/01/25 06:32:18;;;;;;;7.40;2.40;;;;;;;9.72;79.44;96556.84;4933619;29;20821;-88
2024/01/25 06:34:45;;;;;;;8.90;2.40;;;;;;;9.62;79.25;96550.00;4934350;29;20224;-88
2024/01/25 06:37:11;;;;;;;10.37;2.43;;;;;;;9.58;79.39;96564.13;4952321;29;20209;-88
2024/01/25 06:39:38;;;;;;;7.83;2.50;;;;;;;9.57;79.03;96559.94;4952882;29;20291;-88
2024/01/25 06:42:06;;;;;;;5.33;2.00;;;;;;;9.59;78.90;96550.31;4952926;29;20220;-88
2024/01/25 06:44:39;;;;;;;5.53;1.90;;;;;;;9.60;78.86;96543.41;4952419;28;20223;-88
2024/01/25 06:47:10;;;;;;;7.73;2.60;;;;;;;9.52;78.92;96543.31;4953790;29;20212;-88
2024/01/25 06:49:53;;;;;;;10.37;5.17;;;;;;;9.55;78.82;96543.84;4952108;29;20204;-88
2024/01/25 06:58:46;;;;;;;9.20;2.80;;;;;;;9.43;78.34;96545.00;4927211;29;20568;-88
2024/01/25 07:01:25;;;;;;;;;;;;;;;;;;;;;
2024/01/25 07:03:59;;;;;;;8.23;2.77;;;;;;;9.47;77.95;96548.09;4933193;29;20224;-88
2024/01/25 07:06:37;;;;;;;8.70;2.23;;;;;;;9.46;77.59;96539.56;4933008;29;20738;-89
2024/01/25 07:09:03;;;;;;;5.50;2.50;;;;;;;9.44;77.06;96540.66;4950788;29;20259;-89
2024/01/25 07:11:32;;;;;;;8.70;2.97;;;;;;;9.49;77.80;96552.13;4938471;29;20610;-89
2024/01/25 07:14:00;;;;;;;10.80;3.47;;;;;;;9.46;78.11;96580.69;4932388;29;20205;-86
2024/01/25 07:16:27;;;;;;;8.00;2.30;;;;;;;9.41;77.45;96556.41;4932722;29;20238;-86
2024/01/25 07:18:57;;;;;;;10.33;2.50;;;;;;;9.47;77.06;96542.94;4932598;29;20217;-86
2024/01/25 07:21:27;;;;;;;7.53;2.33;;;;;;;9.52;76.85;96536.44;4932425;29;20228;-86
2024/01/25 07:23:54;;;;;;;8.47;2.17;;;;;;;9.57;76.29;96526.53;4938388;29;20205;-85
2024/01/25 07:26:24;;;;;;;7.43;2.37;;;;;;;9.60;75.78;96518.50;4951289;28;20239;-86
2024/01/25 07:28:53;;;;;;;7.73;3.87;;;;;;;9.65;76.00;96518.84;4951876;29;20204;-86
2024/01/25 07:31:25;;;;;;;12.00;6.03;;;;;;;9.72;76.07;96521.66;4952433;29;20586;-86
2024/01/25 07:33:52;;;;;;;9.30;2.70;;;;;;;9.81;75.20;96507.13;4951757;29;20213;-87
2024/01/25 07:36:18;;;;;;;8.77;2.53;;;;;;;9.81;75.18;96514.84;4951795;28;20224;-85
2024/01/25 07:38:46;;;;;;;9.03;2.37;;;;;;;9.81;75.24;96525.94;4951571;29;20323;-86
2024/01/25 07:41:13;;;;;;;6.83;2.17;;;;;;;9.89;76.67;96556.03;4952293;29;20231;-84
2024/01/25 07:43:40;;;;;;;6.93;2.83;;;;;;;10.15;80.13;96669.31;4954375;29;20201;-84
2024/01/25 07:46:07;;;;;;;6.30;2.33;;;;;;;10.41;78.74;96651.38;4952310;28;20225;-84
2024/01/25 07:48:34;;;;;;;7.53;2.60;;;;;;;10.45;79.09;96637.25;4952856;29;20209;-85
2024/01/25 07:51:01;;;;;;;10.07;2.40;;;;;;;10.48;81.08;96706.47;4952568;29;20220;-84
2024/01/25 07:53:28;;;;;;;6.77;2.30;;;;;;;10.43;77.11;96616.00;4949745;29;20721;-84
2024/01/25 07:55:54;;;;;;;9.37;2.47;;;;;;;10.42;78.53;96627.25;4936527;29;20217;-83
2024/01/25 07:58:20;;;;;;;7.47;2.73;;;;;;;10.47;74.42;96530.59;4952555;29;20219;-86
2024/01/25 08:00:47;;;;;;;8.83;2.10;;;;;;;10.52;72.88;96470.91;4951090;29;20201;-86
2024/01/25 08:03:40;;;;;;;6.67;2.37;;;;;;;10.44;72.54;96445.13;4951490;29;20201;-86
2024/01/25 08:06:08;;;;;;;11.20;3.07;;;;;;;10.20;72.15;96428.59;4951364;28;20904;-85
2024/01/25 08:08:35;;;;;;;13.17;3.00;;;;;;;10.19;72.47;96447.59;4935245;29;20671;-84
2024/01/25 08:11:04;;;;;;;8.27;2.50;;;;;;;10.05;72.61;96448.09;4938338;29;20212;-84
2024/01/25 08:13:36;;;;;;;9.30;2.50;;;;;;;9.95;72.41;96430.19;4954644;29;20228;-85
2024/01/25 08:16:03;;;;;;;10.60;3.00;;;;;;;9.95;72.10;96427.63;4954593;28;20582;-85
2024/01/25 08:18:30;;;;;;;14.57;6.37;;;;;;;9.99;71.91;96410.94;4951714;29;20208;-86
2024/01/25 08:20:57;;;;;;;11.60;4.80;;;;;;;9.94;71.22;96395.16;4951436;29;20742;-85
2024/01/25 08:23:50;;;;;;;10.60;3.03;;;;;;;9.94;70.82;96386.63;4951416;29;20228;-87
2024/01/25 08:26:16;;;;;;;7.97;2.57;;;;;;;9.96;71.35;96395.00;4951717;28;20229;-85
2024/01/25 08:28:50;;;;;;;8.57;2.77;;;;;;;9.80;70.89;96369.19;4948298;29;20205;-88
2024/01/25 08:31:16;;;;;;;9.77;3.00;;;;;;;9.69;71.40;96389.03;4952184;28;20208;-87
2024/01/25 08:33:44;;;;;;;6.40;2.40;;;;;;;9.72;71.45;96398.22;4952029;29;20205;-87
2024/01/25 08:36:10;;;;;;;8.37;2.30;;;;;;;9.80;71.08;96390.56;4951068;28;20295;-88
2024/01/25 08:38:37;;;;;;;6.33;2.30;;;;;;;9.94;70.78;96372.00;4951733;29;20200;-88
2024/01/25 08:41:08;;;;;;;6.70;2.23;;;;;;;9.88;70.04;96346.06;4950922;29;20204;-88
2024/01/25 08:43:35;;;;;;;9.20;2.80;;;;;;;9.83;70.62;96367.09;4949079;29;20205;-85
2024/01/25 08:46:01;;;;;;;10.70;2.43;;;;;;;10.13;69.90;96349.56;4952380;28;20232;-85
2024/01/25 08:48:28;;;;;;;6.40;2.23;;;;;;;10.21;69.47;96334.97;4952354;28;20212;-85
2024/01/25 08:50:54;;;;;;;14.00;2.77;;;;;;;10.39;69.54;96350.34;4939051;29;20202;-85
2024/01/25 08:53:27;;;;;;;8.87;2.80;;;;;;;10.69;68.44;96330.94;4933499;29;20205;-85
2024/01/25 08:55:53;;;;;;;11.47;5.33;;;;;;;11.26;67.35;96310.34;4933579;29;20218;-85
2024/01/25 08:58:21;;;;;;;10.53;3.87;;;;;;;11.40;65.53;96209.13;4934632;29;20205;-84
2024/01/25 09:00:47;;;;;;;8.80;3.70;;;;;;;11.29;65.68;96219.78;4939178;29;20208;-84
2024/01/25 09:03:15;;;;;;;12.77;3.20;;;;;;;11.66;64.83;96191.63;4944761;29;20256;-85
2024/01/25 09:08:22;;;;;;;9.27;3.40;;;;;;;12.14;62.00;96047.78;4931189;29;20225;-85
2024/01/25 09:10:48;;;;;;;13.00;3.43;;;;;;;12.38;60.63;95993.34;4935254;29;20208;-85
2024/01/25 09:13:18;;;;;;;7.33;2.17;;;;;;;12.64;59.85;95955.94;4933066;29;20205;-85
2024/01/25 09:15:48;;;;;;;9.93;3.30;;;;;;;12.65;58.13;95846.47;4930686;29;20225;-84
2024/01/25 09:18:15;;;;;;;8.63;3.27;;;;;;;12.95;58.35;95871.22;4956142;29;20217;-83
2024/01/25 09:20:47;;;;;;;11.63;2.77;;;;;;;13.16;57.47;95815.34;4957483;28;20228;-83
2024/01/25 09:23:13;;;;;;;10.67;3.30;;;;;;;12.74;56.29;95740.22;4956920;29;20228;-84
2024/01/25 09:25:41;;;;;;;8.33;3.20;;;;;;;12.32;56.34;95724.72;4952323;28;20224;-85
2024/01/25 09:28:07;;;;;;;9.17;3.00;;;;;;;12.28;57.67;95812.09;4953038;29;20209;-85
2024/01/25 09:30:34;;;;;;;9.97;3.20;;;;;;;12.64;56.98;95819.84;4952544;29;20209;-85
2024/01/25 09:33:02;;;;;;;9.37;2.73;;;;;;;12.99;55.88;95758.72;4948682;29;20193;-85
2024/01/25 09:35:29;;;;;;;9.63;2.53;;;;;;;13.22;55.66;95731.88;4951251;28;20231;-85
2024/01/25 09:37:56;;;;;;;8.87;3.17;;;;;;;13.49;53.82;95618.03;4951137;29;20208;-85
2024/01/25 09:40:22;;;;;;;13.57;2.90;;;;;;;13.52;53.21;95564.31;4951408;29;20590;-84
2024/01/25 09:42:50;;;;;;;11.70;2.87;;;;;;;13.54;53.19;95554.56;4953732;28;20221;-85
2024/01/25 09:45:18;;;;;;;9.70;3.30;;;;;;;13.42;52.65;95508.59;4956519;28;20229;-84
2024/01/25 09:47:44;;;;;;;10.60;3.20;;;;;;;13.28;51.95;95434.53;4940582;29;20205;-85
2024/01/25 09:50:12;;;;;;;9.30;2.80;;;;;;;13.54;52.45;95480.34;4951270;29;20212;-85
2024/01/25 09:52:40;;;;;;;9.53;2.97;;;;;;;13.58;51.35;95414.28;4937933;29;20209;-85
2024/01/25 09:55:08;;;;;;;9.20;2.90;;;;;;;13.85;51.73;95428.03;4935813;29;20236;-85
2024/01/25 09:57:37;;;;;;;9.27;3.42;;;;;;;13.88;51.25;95399.13;4918333;29;20210;-85
2024/01/25 10:00:11;;;;;;;10.30;2.90;;;;;;;14.00;50.95;95387.19;4929642;29;20244;-84
2024/01/25 10:02:43;;;;;;;8.15;2.75;;;;;;;14.05;51.21;95396.91;4937943;29;20287;-85
2024/01/25 10:05:09;;;;;;;9.93;3.15;;;;;;;14.01;50.97;95375.84;4942674;28;20227;-85
2024/01/25 10:07:38;;;;;;;6.30;2.63;;;;;;;13.83;50.60;95352.38;4955851;29;20208;-85
2024/01/25 10:10:05;;;;;;;10.43;3.42;;;;;;;13.48;51.42;95447.50;4955541;29;20212;-85
2024/01/25 10:12:32;;;;;;;9.32;2.80;;;;;;;13.56;51.19;95498.25;4937609;29;20213;-85
2024/01/25 10:14:59;;;;;;;9.93;2.90;;;;;;;13.55;51.52;95540.66;4934924;29;20229;-84
2024/01/25 10:17:25;;;;;;;9.43;2.80;;;;;;;13.33;52.37;95602.03;4936705;29;20216;-84
2024/01/25 10:19:52;;;;;;;8.02;3.13;;;;;;;13.08;52.34;95581.81;4936040;29;20213;-84
2024/01/25 11:02:46;;;;;;;;;;;;;;;;;;;;;
2024/01/25 11:06:05;;;;;;;9.67;2.93;;;;;;;12.03;53.89;95769.50;4853825;29;20238;-85
2024/01/25 11:12:24;;;;;;;9.03;3.27;;;;;;;12.56;54.07;95764.91;4845226;29;20222;-84
2024/01/25 11:15:28;;;;;;;10.07;3.40;;;;;;;12.58;54.12;95766.31;4913248;29;20234;-83
2024/01/25 11:18:25;;;;;;;7.70;3.03;;;;;;;12.73;54.20;95758.50;4918803;29;20205;-83
2024/01/25 11:21:23;;;;;;;9.57;3.30;;;;;;;12.86;53.72;95732.00;4923392;29;20236;-84
2024/01/25 11:23:51;;;;;;;9.13;2.70;;;;;;;12.99;55.53;95828.50;4921170;29;20233;-87
2024/01/25 11:26:18;;;;;;;7.80;2.73;;;;;;;13.13;58.49;96036.25;4928408;29;20309;-88
2024/01/25 11:29:16;;;;;;;9.77;3.50;;;;;;;13.07;58.03;95991.25;4935985;29;20216;-84
2024/01/25 11:31:42;;;;;;;10.73;2.83;;;;;;;13.05;53.71;95736.50;4950878;29;20206;-84
2024/01/25 11:34:11;;;;;;;11.60;2.93;;;;;;;12.99;53.44;95706.22;4951812;29;20216;-83
2024/01/25 11:36:40;;;;;;;10.30;3.00;;;;;;;12.95;53.52;95692.09;4948435;29;20221;-84
2024/01/25 11:39:06;;;;;;;8.10;3.00;;;;;;;12.95;53.53;95700.63;4951233;29;20212;-86
2024/01/25 11:41:33;;;;;;;9.53;4.37;;;;;;;13.04;52.78;95665.13;4939587;29;20201;-84
2024/01/25 11:43:59;;;;;;;8.30;3.13;;;;;;;13.13;52.74;95636.34;4948198;29;20221;-85
2024/01/25 11:46:26;;;;;;;8.13;2.87;;;;;;;13.21;52.88;95650.94;4948665;29;20218;-84
2024/01/25 11:48:53;;;;;;;10.50;3.10;;;;;;;13.24;52.72;95632.47;4949560;29;20208;-84
2024/01/25 11:51:23;;;;;;;8.77;2.78;;;;;;;13.40;52.55;95623.56;4951491;29;20208;-84
2024/01/25 11:53:50;;;;;;;10.67;2.80;;;;;;;13.48;52.54;95625.97;4950035;29;20198;-85
2024/01/25 11:56:21;;;;;;;5.25;2.22;;;;;;;13.51;51.48;95560.13;4950040;29;20256;-83
2024/01/25 11:58:48;;;;;;;7.47;2.30;;;;;;;13.47;50.75;95515.75;4948722;29;20218;-84
2024/01/25 12:01:16;;;;;;;7.10;2.05;;;;;;;13.38;50.31;95475.56;4946154;29;20209;-84
2024/01/25 12:03:42;;;;;;;9.10;2.33;;;;;;;13.31;50.99;95500.59;4941834;29;20229;-85
2024/01/25 12:06:10;;;;;;;7.05;2.78;;;;;;;13.36;50.78;95500.81;4937207;29;20229;-85
2024/01/25 12:08:38;;;;;;;7.63;2.30;;;;;;;13.28;50.54;95485.47;4937417;29;20201;-85
2024/01/25 12:11:05;;;;;;;6.88;2.00;;;;;;;13.16;50.58;95469.72;4938345;29;20268;-85
2024/01/25 12:13:35;;;;;;;6.68;2.42;;;;;;;13.07;51.02;95496.72;4930970;29;20212;-85
2024/01/25 12:16:03;;;;;;;7.25;3.03;;;;;;;12.96;51.13;95497.28;4928288;29;20261;-85
2024/01/25 12:18:30;;;;;;;6.57;2.27;;;;;;;12.94;51.54;95507.00;4929154;29;20208;-86
2024/01/25 12:20:59;;;;;;;5.78;2.10;;;;;;;12.95;51.21;95511.19;4937978;29;20216;-84
2024/01/25 12:23:31;;;;;;;13.77;8.70;;;;;;;13.16;51.26;95523.22;4933965;29;20225;-85
2024/01/25 12:26:01;;;;;;;7.97;3.50;;;;;;;13.26;51.65;95549.53;4932547;29;20280;-85
2024/01/25 12:28:29;;;;;;;8.73;2.60;;;;;;;13.14;51.51;95544.06;4933269;29;20624;-85
2024/01/25 12:30:56;;;;;;;8.20;2.97;;;;;;;13.18;52.18;95589.25;4931641;29;20205;-85
2024/01/25 12:33:23;;;;;;;9.80;2.43;;;;;;;13.28;52.02;95581.94;4934954;29;20205;-85
2024/01/25 12:35:49;;;;;;;6.60;2.27;;;;;;;13.42;51.94;95587.97;4930296;29;20218;-85
2024/01/25 12:38:16;;;;;;;5.78;2.50;;;;;;;13.60;51.46;95543.44;4930472;29;20206;-85
2024/01/25 12:40:42;;;;;;;8.10;2.38;;;;;;;13.57;50.49;95498.06;4933521;29;20209;-85